createdAt,value
2023-03-02T00:01:04.913Z,87.40
2023-03-02T00:03:33.421Z,87.40
2023-03-02T00:06:01.893Z,87.50
2023-03-02T00:08:31.880Z,87.50
2023-03-02T00:11:01.185Z,87.60
2023-03-02T00:13:30.532Z,87.70
2023-03-02T00:15:58.401Z,87.60
2023-03-02T00:18:26.127Z,87.60
2023-03-02T00:20:53.865Z,87.60
2023-03-02T00:23:21.852Z,87.70
2023-03-02T00:25:50.934Z,87.80
2023-03-02T00:28:18.697Z,87.80
2023-03-02T00:30:46.472Z,87.90
2023-03-02T00:33:14.301Z,87.90
2023-03-02T00:35:42.772Z,87.80
2023-03-02T00:38:10.494Z,87.80
2023-03-02T00:40:38.252Z,87.80
2023-03-02T00:43:07.348Z,87.70
2023-03-02T00:45:35.101Z,87.70
2023-03-02T00:48:02.811Z,87.80
2023-03-02T00:50:30.538Z,87.70
2023-03-02T00:52:58.276Z,87.60
2023-03-02T00:55:25.993Z,87.60
2023-03-02T00:57:55.787Z,87.70
2023-03-02T01:00:27.276Z,87.70
2023-03-02T01:02:55.568Z,87.60
2023-03-02T01:05:23.461Z,87.60
2023-03-02T01:07:51.211Z,87.60
2023-03-02T01:10:19.001Z,87.60
2023-03-02T01:12:46.732Z,87.60
2023-03-02T01:15:14.596Z,87.60
2023-03-02T01:17:43.914Z,87.60
2023-03-02T01:20:12.548Z,87.60
2023-03-02T01:22:40.319Z,87.60
2023-03-02T01:25:08.565Z,87.70
2023-03-02T01:27:36.348Z,87.70
2023-03-02T01:30:04.529Z,87.70
2023-03-02T01:32:32.602Z,87.80
2023-03-02T01:35:01.743Z,87.90
2023-03-02T01:37:29.455Z,87.70
2023-03-02T01:39:57.263Z,87.90
2023-03-02T01:42:25.017Z,87.80
2023-03-02T01:44:57.007Z,87.90
2023-03-02T01:47:29.214Z,87.80
2023-03-02T01:49:59.827Z,88.00
2023-03-02T01:52:32.657Z,87.90
2023-03-02T01:55:05.507Z,88.00
2023-03-02T01:57:43.361Z,88.10
2023-03-02T02:00:14.896Z,88.20
2023-03-02T02:02:43.277Z,88.20
2023-03-02T02:05:12.137Z,88.20
2023-03-02T02:07:42.100Z,88.30
2023-03-02T02:10:11.119Z,88.30
2023-03-02T02:12:38.895Z,88.20
2023-03-02T02:15:07.875Z,88.20
2023-03-02T02:17:36.005Z,88.20
2023-03-02T02:20:11.847Z,88.10
2023-03-02T02:22:54.146Z,88.00
2023-03-02T02:25:37.411Z,88.00
2023-03-02T02:28:09.377Z,88.00
2023-03-02T02:30:38.483Z,88.00
2023-03-02T02:33:07.958Z,88.10
2023-03-02T02:35:38.511Z,88.10
2023-03-02T02:38:08.744Z,88.10
2023-03-02T02:40:43.638Z,88.10
2023-03-02T02:43:14.239Z,88.30
2023-03-02T02:45:42.511Z,88.20
2023-03-02T02:48:16.166Z,88.30
2023-03-02T02:50:44.683Z,88.50
2023-03-02T02:53:16.799Z,88.50
2023-03-02T02:55:46.223Z,88.50
2023-03-02T02:58:31.179Z,88.40
2023-03-02T03:01:00.007Z,88.50
2023-03-02T03:03:30.930Z,88.50
2023-03-02T03:05:59.651Z,88.40
2023-03-02T03:08:54.022Z,88.50
2023-03-02T03:11:24.274Z,88.50
2023-03-02T03:13:58.542Z,88.70
2023-03-02T03:16:29.930Z,88.80
2023-03-02T03:19:02.326Z,88.80
2023-03-02T03:21:30.059Z,88.70
2023-03-02T03:23:57.771Z,88.90
2023-03-02T03:26:25.575Z,88.80
2023-03-02T03:28:57.173Z,88.80
2023-03-02T03:31:26.455Z,88.70
2023-03-02T03:33:55.442Z,88.80
2023-03-02T03:36:23.861Z,88.80
2023-03-02T03:38:51.587Z,88.90
2023-03-02T03:41:19.301Z,89.60
2023-03-02T03:43:47.047Z,88.90
2023-03-02T03:46:16.329Z,88.90
2023-03-02T03:48:44.088Z,89.00
2023-03-02T03:51:11.906Z,89.10
2023-03-02T03:53:39.738Z,89.10
2023-03-02T03:56:08.362Z,89.10
2023-03-02T03:58:36.163Z,89.10
2023-03-02T04:01:04.183Z,89.80
2023-03-02T04:03:33.647Z,89.20
2023-03-02T04:06:01.433Z,89.20
2023-03-02T04:08:29.172Z,89.30
2023-03-02T04:10:56.897Z,89.30
2023-03-02T04:13:24.643Z,89.20
2023-03-02T04:15:52.481Z,89.20
2023-03-02T04:18:20.194Z,89.30
2023-03-02T04:20:49.256Z,89.40
2023-03-02T04:23:16.995Z,89.40
2023-03-02T04:25:44.695Z,89.50
2023-03-02T04:28:12.397Z,89.50
2023-03-02T04:30:40.176Z,89.40
2023-03-02T04:33:07.883Z,89.50
2023-03-02T04:35:35.743Z,89.50
2023-03-02T04:38:05.000Z,89.50
2023-03-02T04:40:32.811Z,89.50
2023-03-02T04:43:00.549Z,89.50
2023-03-02T04:45:28.308Z,89.50
2023-03-02T04:47:56.035Z,89.50
2023-03-02T04:50:24.087Z,89.50
2023-03-02T04:52:51.874Z,89.50
2023-03-02T04:55:23.749Z,89.50
2023-03-02T04:57:51.579Z,89.80
2023-03-02T05:00:21.666Z,89.60
2023-03-02T05:02:49.493Z,89.50
2023-03-02T05:05:19.805Z,89.70
2023-03-02T05:07:47.684Z,89.50
2023-03-02T05:10:16.884Z,89.60
2023-03-02T05:12:57.719Z,89.60
2023-03-02T05:15:27.095Z,89.60
2023-03-02T05:17:55.157Z,89.60
2023-03-02T05:20:27.338Z,89.70
2023-03-02T05:22:58.694Z,89.60
2023-03-02T05:25:27.347Z,89.50
2023-03-02T05:27:56.863Z,89.50
2023-03-02T05:30:25.708Z,90.00
2023-03-02T05:32:54.255Z,89.50
2023-03-02T05:35:23.055Z,89.40
2023-03-02T05:37:51.201Z,89.50
2023-03-02T05:40:21.358Z,89.50
2023-03-02T05:42:50.528Z,89.50
2023-03-02T05:45:24.704Z,89.50
2023-03-02T05:47:52.599Z,89.50
2023-03-02T05:50:20.517Z,89.50
2023-03-02T05:52:48.552Z,89.50
2023-03-02T05:55:17.481Z,89.60
2023-03-02T05:57:45.947Z,89.60
2023-03-02T06:00:15.399Z,89.60
2023-03-02T06:02:44.503Z,89.60
2023-03-02T06:05:16.957Z,89.60
2023-03-02T06:07:44.741Z,89.60
2023-03-02T06:10:13.986Z,90.00
2023-03-02T06:12:42.123Z,90.00
2023-03-02T06:15:10.522Z,90.00
2023-03-02T06:17:38.297Z,89.90
2023-03-02T06:20:10.697Z,89.70
2023-03-02T06:22:41.156Z,89.80
2023-03-02T06:25:10.295Z,90.00
2023-03-02T06:27:39.476Z,90.00
2023-03-02T06:30:09.184Z,89.90
2023-03-02T06:32:36.963Z,89.50
2023-03-02T06:35:06.183Z,89.30
2023-03-02T06:37:35.367Z,89.40
2023-03-02T06:40:05.536Z,89.30
2023-03-02T06:42:33.272Z,89.30
2023-03-02T06:45:00.992Z,89.30
2023-03-02T06:47:28.815Z,89.40
2023-03-02T06:49:56.713Z,90.00
2023-03-02T06:52:24.487Z,89.50
2023-03-02T06:54:53.657Z,89.50
2023-03-02T06:57:21.415Z,89.50
2023-03-02T06:59:49.119Z,89.50
2023-03-02T07:02:16.844Z,89.70
2023-03-02T07:04:44.589Z,89.60
2023-03-02T07:07:12.344Z,89.90
2023-03-02T07:09:40.179Z,89.80
2023-03-02T07:12:09.364Z,89.80
2023-03-02T07:14:37.404Z,89.90
2023-03-02T07:17:06.148Z,89.90
2023-03-02T07:19:34.190Z,89.70
2023-03-02T07:22:01.906Z,89.70
2023-03-02T07:24:29.783Z,89.70
2023-03-02T07:26:57.521Z,89.80
2023-03-02T07:29:26.653Z,89.80
2023-03-02T07:31:57.032Z,90.00
2023-03-02T07:34:25.511Z,90.00
2023-03-02T07:36:53.789Z,90.00
2023-03-02T07:39:21.731Z,90.10
2023-03-02T07:41:49.464Z,90.40
2023-03-02T07:44:17.193Z,90.10
2023-03-02T07:46:46.514Z,90.00
2023-03-02T07:49:14.302Z,90.00
2023-03-02T07:51:42.034Z,90.00
2023-03-02T07:54:09.963Z,90.00
2023-03-02T07:56:37.980Z,90.10
2023-03-02T07:59:05.720Z,90.10
2023-03-02T08:01:33.891Z,90.10
2023-03-02T08:04:03.152Z,90.10
2023-03-02T08:06:31.098Z,90.10
2023-03-02T08:09:00.169Z,90.20
2023-03-02T08:11:27.908Z,90.20
2023-03-02T08:13:55.741Z,90.30
2023-03-02T08:16:25.554Z,90.40
2023-03-02T08:18:53.605Z,90.30
2023-03-02T08:21:24.256Z,90.30
2023-03-02T08:23:52.677Z,90.20
2023-03-02T08:26:21.281Z,90.20
2023-03-02T08:28:49.317Z,90.10
2023-03-02T08:31:17.502Z,90.20
2023-03-02T08:33:45.890Z,90.20
2023-03-02T08:36:15.592Z,90.30
2023-03-02T08:38:45.053Z,90.30
2023-03-02T08:41:16.433Z,90.30
2023-03-02T08:43:44.216Z,90.30
2023-03-02T08:46:13.244Z,90.30
2023-03-02T08:48:41.421Z,90.30
2023-03-02T08:51:11.200Z,90.30
2023-03-02T08:53:40.597Z,90.40
2023-03-02T08:56:18.638Z,90.40
2023-03-02T08:58:46.572Z,90.40
2023-03-02T09:01:15.872Z,90.40
2023-03-02T09:03:43.690Z,90.40
2023-03-02T09:06:11.645Z,90.40
2023-03-02T09:08:39.883Z,90.50
2023-03-02T09:11:07.987Z,90.50
2023-03-02T09:13:37.669Z,90.60
2023-03-02T09:16:08.368Z,90.60
2023-03-02T09:18:36.631Z,90.60
2023-03-02T09:21:05.913Z,90.60
2023-03-02T09:23:35.381Z,90.60
2023-03-02T09:26:03.685Z,90.60
2023-03-02T09:28:31.991Z,90.60
2023-03-02T09:31:02.916Z,90.60
2023-03-02T09:33:31.306Z,90.50
2023-03-02T09:35:59.239Z,90.60
2023-03-02T09:38:27.336Z,90.50
2023-03-02T09:41:14.305Z,90.50
2023-03-02T09:43:48.876Z,90.80
2023-03-02T09:46:21.805Z,90.50
2023-03-02T09:49:11.481Z,90.50
2023-03-02T09:51:46.325Z,90.50
2023-03-02T09:54:16.250Z,90.40
2023-03-02T09:56:47.740Z,90.50
2023-03-02T09:59:22.994Z,90.40
2023-03-02T10:01:55.340Z,90.30
2023-03-02T10:04:27.621Z,90.20
2023-03-02T10:06:59.120Z,90.20
2023-03-02T10:09:27.045Z,90.10
2023-03-02T10:12:10.462Z,90.00
2023-03-02T10:14:43.793Z,89.80
2023-03-02T10:17:27.269Z,89.60
2023-03-02T10:20:00.213Z,89.70
2023-03-02T10:22:31.240Z,89.70
2023-03-02T10:25:09.248Z,89.70
2023-03-02T10:27:40.478Z,89.60
2023-03-02T10:30:18.737Z,89.40
2023-03-02T10:32:50.182Z,89.10
2023-03-02T10:35:21.039Z,89.00
2023-03-02T10:37:51.527Z,88.70
2023-03-02T10:40:34.489Z,88.60
2023-03-02T10:43:03.810Z,87.90
2023-03-02T10:45:33.049Z,87.80
2023-03-02T10:48:03.491Z,87.70
2023-03-02T10:50:31.533Z,87.30
2023-03-02T10:53:01.931Z,87.50
2023-03-02T10:55:31.653Z,87.20
2023-03-02T10:58:05.165Z,86.90
2023-03-02T11:00:35.420Z,86.90
2023-03-02T11:03:07.334Z,86.60
2023-03-02T11:05:36.799Z,86.60
2023-03-02T11:08:06.405Z,86.60
2023-03-02T11:10:36.593Z,86.60
2023-03-02T11:13:17.283Z,86.20
2023-03-02T11:15:48.267Z,86.30
2023-03-02T11:18:26.353Z,86.30
2023-03-02T11:20:58.306Z,86.10
2023-03-02T11:23:35.936Z,86.10
2023-03-02T11:26:13.565Z,85.80
2023-03-02T11:28:49.084Z,86.00
2023-03-02T11:31:24.753Z,85.70
2023-03-02T11:34:15.630Z,85.00
2023-03-02T11:36:57.035Z,85.80
2023-03-02T11:39:29.926Z,84.20
2023-03-02T11:41:57.766Z,84.00
2023-03-02T11:44:27.353Z,84.20
2023-03-02T11:47:00.433Z,84.30
2023-03-02T11:49:37.909Z,83.50
2023-03-02T11:52:06.090Z,83.90
2023-03-02T11:54:40.050Z,83.60
2023-03-02T11:57:15.893Z,83.40
2023-03-02T11:59:43.929Z,83.90
2023-03-02T12:02:14.471Z,83.90
2023-03-02T12:04:43.909Z,83.90
2023-03-02T12:07:20.656Z,83.20
2023-03-02T12:09:58.943Z,82.10
2023-03-02T12:12:59.136Z,82.40
2023-03-02T12:15:38.456Z,81.10
2023-03-02T12:18:30.553Z,82.00
2023-03-02T12:21:08.565Z,80.50
2023-03-02T12:23:41.332Z,81.10
2023-03-02T12:26:24.967Z,81.10
2023-03-02T12:29:00.602Z,80.80
2023-03-02T12:31:40.231Z,80.90
2023-03-02T12:34:29.896Z,81.00
2023-03-02T12:37:02.157Z,80.40
2023-03-02T12:39:46.666Z,79.30
2023-03-02T12:42:38.887Z,79.50
2023-03-02T12:45:19.782Z,77.80
2023-03-02T12:47:52.251Z,79.70
2023-03-02T12:50:24.862Z,79.90
2023-03-02T12:53:00.214Z,79.20
2023-03-02T12:55:28.404Z,79.70
2023-03-02T12:57:58.175Z,79.30
2023-03-02T13:00:28.296Z,78.30
2023-03-02T13:02:58.245Z,78.60
2023-03-02T13:05:30.468Z,78.80
2023-03-02T13:08:02.214Z,77.30
2023-03-02T13:10:33.453Z,78.20
2023-03-02T13:13:01.586Z,77.50
2023-03-02T13:15:29.537Z,77.40
2023-03-02T13:17:59.456Z,78.10
2023-03-02T13:20:29.722Z,78.50
2023-03-02T13:22:59.139Z,78.20
2023-03-02T13:25:29.015Z,78.00
2023-03-02T13:28:00.502Z,77.40
2023-03-02T13:30:30.769Z,77.30
2023-03-02T13:33:03.149Z,76.40
2023-03-02T13:35:32.650Z,76.70
2023-03-02T13:38:05.708Z,77.10
2023-03-02T13:40:42.285Z,77.50
2023-03-02T13:43:30.680Z,76.80
2023-03-02T13:46:00.506Z,77.20
2023-03-02T13:48:29.554Z,77.10
2023-03-02T13:50:59.280Z,76.70
2023-03-02T13:53:30.929Z,75.60
2023-03-02T13:56:01.064Z,76.80
2023-03-02T13:58:30.182Z,75.90
2023-03-02T14:00:58.176Z,77.10
2023-03-02T14:03:28.943Z,76.80
2023-03-02T14:05:58.268Z,77.20
2023-03-02T14:08:27.620Z,75.40
2023-03-02T14:10:57.962Z,76.70
2023-03-02T14:13:36.640Z,75.80
2023-03-02T14:16:05.640Z,75.20
2023-03-02T14:18:38.866Z,74.90
2023-03-02T14:21:07.386Z,75.60
2023-03-02T14:23:36.525Z,75.00
2023-03-02T14:26:10.894Z,75.70
2023-03-02T14:28:38.684Z,74.10
2023-03-02T14:31:06.704Z,74.30
2023-03-02T14:33:34.630Z,75.60
2023-03-02T14:36:02.402Z,75.00
2023-03-02T14:38:31.002Z,74.60
2023-03-02T14:41:00.250Z,73.90
2023-03-02T14:43:28.329Z,74.70
2023-03-02T14:45:56.108Z,74.90
2023-03-02T14:48:23.851Z,73.70
2023-03-02T14:50:52.726Z,73.60
2023-03-02T14:53:26.973Z,72.00
2023-03-02T14:55:54.836Z,71.10
2023-03-02T14:58:31.158Z,74.80
2023-03-02T15:00:59.016Z,76.40
2023-03-02T15:03:27.045Z,76.90
2023-03-02T15:06:01.160Z,76.10
2023-03-02T15:08:29.640Z,77.10
2023-03-02T15:10:57.385Z,75.90
2023-03-02T15:13:26.556Z,74.90
2023-03-02T15:15:54.291Z,74.70
2023-03-02T15:18:22.049Z,73.60
2023-03-02T15:20:49.813Z,74.90
2023-03-02T15:23:17.587Z,74.90
2023-03-02T15:25:45.302Z,75.20
2023-03-02T15:28:13.015Z,75.90
2023-03-02T15:30:42.085Z,75.90
2023-03-02T15:33:10.003Z,76.30
2023-03-02T15:35:39.972Z,76.60
2023-03-02T15:38:07.829Z,76.50
2023-03-02T15:40:36.948Z,76.00
2023-03-02T15:43:04.730Z,75.60
2023-03-02T15:45:32.475Z,75.60
2023-03-02T15:48:01.560Z,75.50
2023-03-02T15:50:29.342Z,75.00
2023-03-02T15:52:57.336Z,74.90
2023-03-02T15:55:25.102Z,75.50
2023-03-02T15:57:53.505Z,75.70
2023-03-02T16:00:22.170Z,75.50
2023-03-02T16:02:50.150Z,75.40
2023-03-02T16:05:19.330Z,75.70
2023-03-02T16:07:47.094Z,75.60
2023-03-02T16:10:16.379Z,76.00
2023-03-02T16:12:44.109Z,75.90
2023-03-02T16:15:12.163Z,76.00
2023-03-02T16:17:39.878Z,76.10
2023-03-02T16:20:08.296Z,76.20
2023-03-02T16:22:37.570Z,75.90
2023-03-02T16:25:05.943Z,76.30
2023-03-02T16:27:33.707Z,75.90
2023-03-02T16:30:01.428Z,75.70
2023-03-02T16:32:30.004Z,76.20
2023-03-02T16:34:57.799Z,76.40
2023-03-02T16:37:25.514Z,76.70
2023-03-02T16:39:54.571Z,76.60
2023-03-02T16:42:22.284Z,76.90
2023-03-02T16:44:50.960Z,76.80
2023-03-02T16:47:18.672Z,76.90
2023-03-02T16:49:46.372Z,77.10
2023-03-02T16:52:14.098Z,77.20
2023-03-02T16:54:41.836Z,77.30
2023-03-02T16:57:10.952Z,77.50
2023-03-02T16:59:38.657Z,77.00
2023-03-02T17:02:06.383Z,77.20
2023-03-02T17:04:36.932Z,77.50
2023-03-02T17:07:04.928Z,77.60
2023-03-02T17:09:33.151Z,77.70
2023-03-02T17:12:00.964Z,77.70
2023-03-02T17:14:30.077Z,77.90
2023-03-02T17:16:58.160Z,78.10
2023-03-02T17:19:26.805Z,77.90
2023-03-02T17:21:56.872Z,78.20
2023-03-02T17:24:24.617Z,78.20
2023-03-02T17:26:52.356Z,78.20
2023-03-02T17:29:20.096Z,78.20
2023-03-02T17:31:49.178Z,78.20
2023-03-02T17:34:16.946Z,78.40
2023-03-02T17:36:44.680Z,78.50
2023-03-02T17:39:12.542Z,78.60
2023-03-02T17:41:40.375Z,78.50
2023-03-02T17:44:08.219Z,78.60
2023-03-02T17:46:36.006Z,78.60
2023-03-02T17:49:05.135Z,78.60
2023-03-02T17:51:32.843Z,78.70
2023-03-02T17:54:00.580Z,78.70
2023-03-02T17:56:29.951Z,78.80
2023-03-02T17:58:59.492Z,78.90
2023-03-02T18:01:27.978Z,78.80
2023-03-02T18:03:55.896Z,79.10
2023-03-02T18:06:25.331Z,79.00
2023-03-02T18:08:53.595Z,79.20
2023-03-02T18:11:23.235Z,79.20
2023-03-02T18:13:51.085Z,79.30
2023-03-02T18:16:18.823Z,79.20
2023-03-02T18:18:46.596Z,79.40
2023-03-02T18:21:14.301Z,79.40
2023-03-02T18:23:44.699Z,79.50
2023-03-02T18:26:14.017Z,79.50
2023-03-02T18:28:42.223Z,79.60
2023-03-02T18:31:11.190Z,79.70
2023-03-02T18:33:38.986Z,79.80
2023-03-02T18:36:07.318Z,79.90
2023-03-02T18:38:35.835Z,80.00
2023-03-02T18:41:06.929Z,80.10
2023-03-02T18:43:37.997Z,80.30
2023-03-02T18:46:06.208Z,80.40
2023-03-02T18:48:34.334Z,80.40
2023-03-02T18:51:02.066Z,80.60
2023-03-02T18:53:29.804Z,80.70
2023-03-02T18:55:57.814Z,80.90
2023-03-02T18:58:27.344Z,81.10
2023-03-02T19:01:45.877Z,81.10
2023-03-02T19:04:14.184Z,81.20
2023-03-02T19:06:42.051Z,81.50
2023-03-02T19:09:10.016Z,81.60
2023-03-02T19:11:38.264Z,81.80
2023-03-02T19:14:07.311Z,81.80
2023-03-02T19:16:36.061Z,81.90
2023-03-02T19:19:03.814Z,82.10
2023-03-02T19:21:31.536Z,82.20
2023-03-02T19:23:59.337Z,82.40
2023-03-02T19:26:27.292Z,82.60
2023-03-02T19:28:55.749Z,82.70
2023-03-02T19:31:25.473Z,82.80
2023-03-02T19:33:53.248Z,82.90
2023-03-02T19:36:21.148Z,83.10
2023-03-02T19:38:49.184Z,83.10
2023-03-02T19:41:18.716Z,83.30
2023-03-02T19:43:47.162Z,83.30
2023-03-02T19:46:16.120Z,83.50
2023-03-02T19:48:45.513Z,83.70
2023-03-02T19:51:14.944Z,83.80
2023-03-02T19:53:43.938Z,84.10
2023-03-02T19:56:14.232Z,84.10
2023-03-02T19:58:47.415Z,84.20
2023-03-02T20:01:21.303Z,84.30
2023-03-02T20:03:51.583Z,84.30
2023-03-02T20:06:20.081Z,84.50
2023-03-02T20:08:48.266Z,84.60
2023-03-02T20:11:16.294Z,84.60
2023-03-02T20:13:44.307Z,84.70
2023-03-02T20:16:13.295Z,84.80
2023-03-02T20:18:42.122Z,84.80
2023-03-02T20:21:11.193Z,84.90
2023-03-02T20:23:38.905Z,85.00
2023-03-02T20:26:06.875Z,85.10
2023-03-02T20:28:35.416Z,85.00
2023-03-02T20:31:08.785Z,85.50
2023-03-02T20:33:41.222Z,85.30
2023-03-02T20:36:12.606Z,85.40
2023-03-02T20:38:44.800Z,85.40
2023-03-02T20:41:12.966Z,85.60
2023-03-02T20:43:41.540Z,85.60
2023-03-02T20:46:13.629Z,85.70
2023-03-02T20:48:41.390Z,86.00
2023-03-02T20:51:09.225Z,85.90
2023-03-02T20:53:38.251Z,86.20
2023-03-02T20:56:06.665Z,86.20
2023-03-02T20:58:35.464Z,86.40
2023-03-02T21:01:03.290Z,86.50
2023-03-02T21:03:31.354Z,86.30
2023-03-02T21:05:59.038Z,86.40
2023-03-02T21:08:26.975Z,86.40
2023-03-02T21:10:56.104Z,86.50
2023-03-02T21:13:23.909Z,86.50
2023-03-02T21:15:51.901Z,86.70
2023-03-02T21:18:19.648Z,86.60
2023-03-02T21:20:48.535Z,86.80
2023-03-02T21:23:16.334Z,86.80
2023-03-02T21:25:44.778Z,86.80
2023-03-02T21:28:13.929Z,87.00
2023-03-02T21:30:41.686Z,87.00
2023-03-02T21:33:09.389Z,87.00
2023-03-02T21:35:37.371Z,87.00
2023-03-02T21:38:05.750Z,87.00
2023-03-02T21:40:37.523Z,87.00
2023-03-02T21:43:06.409Z,87.00
2023-03-02T21:45:36.860Z,87.10
2023-03-02T21:48:05.384Z,87.20
2023-03-02T21:50:35.488Z,87.20
2023-03-02T21:53:03.531Z,87.10
2023-03-02T21:55:31.583Z,87.20
2023-03-02T21:57:59.557Z,87.30
2023-03-02T22:00:30.034Z,87.10
2023-03-02T22:02:59.150Z,87.30
2023-03-02T22:05:27.058Z,87.40
2023-03-02T22:07:55.027Z,87.50
2023-03-02T22:10:27.958Z,87.40
2023-03-02T22:13:14.233Z,87.40
2023-03-02T22:15:42.391Z,87.50
2023-03-02T22:18:13.199Z,87.60
2023-03-02T22:20:43.705Z,87.50
2023-03-02T22:23:13.915Z,87.60
2023-03-02T22:25:44.309Z,87.60
2023-03-02T22:28:17.592Z,87.70
2023-03-02T22:30:45.886Z,87.60
2023-03-02T22:33:19.791Z,87.70
2023-03-02T22:35:47.949Z,87.70
2023-03-02T22:38:23.194Z,87.70
2023-03-02T22:40:51.659Z,87.90
2023-03-02T22:43:24.899Z,88.00
2023-03-02T22:45:52.965Z,88.80
2023-03-02T22:48:25.423Z,88.10
2023-03-02T22:50:53.274Z,88.30
2023-03-02T22:53:25.840Z,88.30
2023-03-02T22:55:58.608Z,88.30
2023-03-02T22:58:37.383Z,88.30
2023-03-02T23:01:19.141Z,88.30
2023-03-02T23:03:50.956Z,88.40
2023-03-02T23:06:25.564Z,88.50
2023-03-02T23:08:54.708Z,88.50
2023-03-02T23:11:24.192Z,88.70
2023-03-02T23:13:53.219Z,88.80
2023-03-02T23:16:23.068Z,88.70
2023-03-02T23:18:53.798Z,88.60
2023-03-02T23:21:24.762Z,88.70
2023-03-02T23:23:53.186Z,88.80
2023-03-02T23:26:21.688Z,88.80
2023-03-02T23:28:50.996Z,88.90
2023-03-02T23:31:19.509Z,88.80
2023-03-02T23:33:47.307Z,88.80
2023-03-02T23:36:16.378Z,88.80
2023-03-02T23:38:44.119Z,88.80
2023-03-02T23:41:11.866Z,88.90
2023-03-02T23:43:39.571Z,89.00
2023-03-02T23:46:07.627Z,89.00
2023-03-02T23:48:35.717Z,89.10
2023-03-02T23:51:03.475Z,89.10
2023-03-02T23:53:32.557Z,89.20
2023-03-02T23:56:00.286Z,89.30
2023-03-02T23:58:28.173Z,89.40
